createdAt,value
2023-03-05T00:00:55.991Z,4.51
2023-03-05T00:03:23.220Z,4.65
2023-03-05T00:05:57.247Z,4.56
2023-03-05T00:08:24.484Z,4.56
2023-03-05T00:11:02.669Z,4.44
2023-03-05T00:13:29.919Z,4.53
2023-03-05T00:15:57.133Z,4.37
2023-03-05T00:18:24.850Z,4.43
2023-03-05T00:20:52.104Z,4.49
2023-03-05T00:23:19.347Z,4.56
2023-03-05T00:25:46.773Z,4.46
2023-03-05T00:28:14.186Z,4.33
2023-03-05T00:30:41.849Z,4.53
2023-03-05T00:33:12.118Z,4.58
2023-03-05T00:35:41.011Z,4.64
2023-03-05T00:38:08.651Z,4.51
2023-03-05T00:40:38.105Z,4.49
2023-03-05T00:43:06.355Z,4.49
2023-03-05T00:45:33.994Z,4.50
2023-03-05T00:48:01.382Z,4.43
2023-03-05T00:50:28.558Z,4.46
2023-03-05T00:52:55.942Z,4.56
2023-03-05T00:55:23.122Z,4.51
2023-03-05T00:57:50.361Z,4.43
2023-03-05T01:00:18.004Z,4.36
2023-03-05T01:02:45.181Z,4.44
2023-03-05T01:05:14.244Z,4.33
2023-03-05T01:07:41.496Z,4.20
2023-03-05T01:10:09.563Z,4.23
2023-03-05T01:12:38.030Z,4.28
2023-03-05T01:15:06.661Z,4.53
2023-03-05T01:17:34.637Z,4.29
2023-03-05T01:20:01.839Z,4.28
2023-03-05T01:22:29.104Z,4.23
2023-03-05T01:24:56.426Z,4.26
2023-03-05T01:27:23.714Z,4.32
2023-03-05T01:29:50.896Z,4.37
2023-03-05T01:32:18.546Z,4.16
2023-03-05T01:34:45.730Z,4.23
2023-03-05T01:37:12.921Z,4.30
2023-03-05T01:39:40.114Z,4.22
2023-03-05T01:42:07.743Z,4.30
2023-03-05T01:44:35.413Z,4.24
2023-03-05T01:47:03.698Z,4.33
2023-03-05T01:49:38.441Z,4.26
2023-03-05T01:52:08.037Z,3.99
2023-03-05T01:54:40.602Z,4.17
2023-03-05T01:57:12.578Z,4.05
2023-03-05T01:59:41.952Z,4.12
2023-03-05T02:02:09.322Z,4.06
2023-03-05T02:05:00.768Z,4.19
2023-03-05T02:07:29.446Z,4.20
2023-03-05T02:09:56.564Z,4.30
2023-03-05T02:12:23.932Z,4.12
2023-03-05T02:14:59.081Z,4.13
2023-03-05T02:17:30.524Z,4.06
2023-03-05T02:20:08.392Z,4.07
2023-03-05T02:22:35.838Z,3.96
2023-03-05T02:25:15.976Z,4.13
2023-03-05T02:27:47.703Z,4.01
2023-03-05T02:30:14.989Z,4.10
2023-03-05T02:32:42.177Z,4.07
2023-03-05T02:35:09.787Z,3.84
2023-03-05T02:37:36.977Z,4.01
2023-03-05T02:40:06.098Z,4.07
2023-03-05T02:42:33.733Z,4.01
2023-03-05T02:45:02.479Z,3.89
2023-03-05T02:47:29.803Z,3.98
2023-03-05T02:49:57.629Z,3.99
2023-03-05T02:52:25.755Z,4.06
2023-03-05T02:54:53.427Z,3.91
2023-03-05T02:57:20.989Z,3.81
2023-03-05T02:59:48.748Z,3.89
2023-03-05T03:02:17.090Z,3.93
2023-03-05T03:04:45.175Z,3.86
2023-03-05T03:07:13.406Z,3.78
2023-03-05T03:09:42.800Z,3.82
2023-03-05T03:12:11.150Z,3.91
2023-03-05T03:14:41.287Z,3.91
2023-03-05T03:17:13.674Z,3.93
2023-03-05T03:19:41.933Z,3.91
2023-03-05T03:22:10.111Z,3.84
2023-03-05T03:24:38.675Z,3.91
2023-03-05T03:27:06.416Z,3.89
2023-03-05T03:29:33.779Z,3.68
2023-03-05T03:32:00.953Z,3.74
2023-03-05T03:34:28.272Z,3.78
2023-03-05T03:36:55.434Z,3.44
2023-03-05T03:39:23.661Z,3.64
2023-03-05T03:41:52.762Z,3.63
2023-03-05T03:44:21.661Z,3.67
2023-03-05T03:46:50.302Z,3.53
2023-03-05T03:49:25.409Z,3.51
2023-03-05T03:51:54.663Z,3.63
2023-03-05T03:54:22.626Z,3.50
2023-03-05T03:56:50.416Z,3.67
2023-03-05T03:59:17.559Z,3.55
2023-03-05T04:01:44.841Z,3.57
2023-03-05T04:04:12.919Z,3.47
2023-03-05T04:06:40.652Z,3.44
2023-03-05T04:09:10.953Z,3.43
2023-03-05T04:11:38.233Z,3.34
2023-03-05T04:14:05.975Z,3.28
2023-03-05T04:16:33.390Z,3.30
2023-03-05T04:19:00.521Z,3.28
2023-03-05T04:21:27.755Z,3.22
2023-03-05T04:23:54.954Z,3.09
2023-03-05T04:26:22.138Z,3.09
2023-03-05T04:28:49.494Z,2.96
2023-03-05T04:31:17.436Z,2.96
2023-03-05T04:33:44.630Z,2.93
2023-03-05T04:36:11.873Z,2.95
2023-03-05T04:38:39.089Z,2.92
2023-03-05T04:41:06.234Z,2.91
2023-03-05T04:43:33.369Z,2.99
2023-03-05T04:46:00.588Z,2.92
2023-03-05T04:48:27.746Z,3.05
2023-03-05T04:50:54.940Z,3.09
2023-03-05T04:53:22.078Z,2.99
2023-03-05T04:55:55.941Z,3.10
2023-03-05T04:58:23.815Z,3.20
2023-03-05T05:00:51.312Z,3.20
2023-03-05T05:03:18.624Z,3.27
2023-03-05T05:05:45.822Z,3.22
2023-03-05T05:08:13.062Z,3.07
2023-03-05T05:10:41.468Z,3.24
2023-03-05T05:13:08.704Z,3.19
2023-03-05T05:15:35.822Z,3.15
2023-03-05T05:18:03.096Z,3.27
2023-03-05T05:20:30.256Z,3.15
2023-03-05T05:22:57.431Z,3.07
2023-03-05T05:25:24.726Z,3.12
2023-03-05T05:27:51.973Z,3.12
2023-03-05T05:30:19.095Z,3.10
2023-03-05T05:32:46.374Z,3.28
2023-03-05T05:35:13.571Z,3.23
2023-03-05T05:37:40.834Z,3.33
2023-03-05T05:40:08.803Z,3.47
2023-03-05T05:42:36.051Z,3.38
2023-03-05T05:45:03.728Z,3.57
2023-03-05T05:47:31.041Z,3.64
2023-03-05T05:49:58.312Z,3.65
2023-03-05T05:52:25.640Z,3.71
2023-03-05T05:54:52.839Z,3.81
2023-03-05T05:57:20.028Z,3.86
2023-03-05T05:59:47.404Z,3.91
2023-03-05T06:02:14.643Z,4.17
2023-03-05T06:04:41.816Z,4.17
2023-03-05T06:07:09.073Z,4.32
2023-03-05T06:09:36.713Z,4.43
2023-03-05T06:12:04.406Z,4.60
2023-03-05T06:14:31.556Z,4.62
2023-03-05T06:16:58.799Z,4.47
2023-03-05T06:19:26.090Z,4.75
2023-03-05T06:21:53.263Z,4.85
2023-03-05T06:24:20.459Z,4.75
2023-03-05T06:26:48.587Z,4.81
2023-03-05T06:29:16.114Z,5.04
2023-03-05T06:31:43.405Z,5.18
2023-03-05T06:34:10.915Z,5.29
2023-03-05T06:36:38.794Z,5.30
2023-03-05T06:39:06.502Z,5.42
2023-03-05T06:41:33.711Z,5.43
2023-03-05T06:44:03.141Z,5.57
2023-03-05T06:46:33.354Z,5.77
2023-03-05T06:49:02.316Z,5.83
2023-03-05T06:51:35.813Z,5.66
2023-03-05T06:54:07.629Z,5.97
2023-03-05T06:56:36.666Z,5.84
2023-03-05T06:59:04.744Z,6.12
2023-03-05T07:01:31.951Z,6.11
2023-03-05T07:04:00.415Z,6.12
2023-03-05T07:06:27.978Z,6.05
2023-03-05T07:08:56.481Z,6.08
2023-03-05T07:11:24.776Z,6.18
2023-03-05T07:13:52.051Z,6.08
2023-03-05T07:16:21.755Z,6.28
2023-03-05T07:18:49.362Z,6.26
2023-03-05T07:21:22.301Z,6.44
2023-03-05T07:23:50.164Z,6.18
2023-03-05T07:26:17.611Z,6.44
2023-03-05T07:28:44.814Z,6.50
2023-03-05T07:31:21.938Z,6.46
2023-03-05T07:33:50.319Z,6.42
2023-03-05T07:36:17.975Z,6.13
2023-03-05T07:38:45.939Z,6.18
2023-03-05T07:41:19.766Z,6.30
2023-03-05T07:43:48.735Z,6.50
2023-03-05T07:46:18.027Z,6.56
2023-03-05T07:48:45.336Z,6.84
2023-03-05T07:51:19.968Z,6.71
2023-03-05T07:53:49.265Z,6.81
2023-03-05T07:56:24.279Z,6.95
2023-03-05T07:58:51.958Z,6.88
2023-03-05T08:01:19.156Z,6.88
2023-03-05T08:03:46.422Z,6.97
2023-03-05T08:06:13.602Z,7.22
2023-03-05T08:08:40.880Z,7.16
2023-03-05T08:11:13.705Z,7.70
2023-03-05T08:13:41.214Z,7.49
2023-03-05T08:16:11.687Z,7.50
2023-03-05T08:18:39.014Z,7.63
2023-03-05T08:21:06.692Z,7.59
2023-03-05T08:23:34.588Z,7.71
2023-03-05T08:26:01.812Z,7.67
2023-03-05T08:28:29.014Z,7.81
2023-03-05T08:30:56.185Z,7.65
2023-03-05T08:33:23.379Z,7.55
2023-03-05T08:35:50.552Z,7.81
2023-03-05T08:38:20.020Z,7.93
2023-03-05T08:40:48.252Z,7.94
2023-03-05T08:43:17.486Z,8.05
2023-03-05T08:45:44.626Z,8.32
2023-03-05T08:48:11.810Z,8.20
2023-03-05T08:50:39.331Z,8.28
2023-03-05T08:53:07.019Z,8.52
2023-03-05T08:55:34.378Z,8.32
2023-03-05T08:58:01.570Z,8.48
2023-03-05T09:00:28.718Z,8.07
2023-03-05T09:02:56.113Z,8.50
2023-03-05T09:05:23.257Z,8.18
2023-03-05T09:07:50.472Z,8.64
2023-03-05T09:10:18.521Z,8.91
2023-03-05T09:12:45.720Z,8.99
2023-03-05T09:15:12.894Z,8.81
2023-03-05T09:17:42.033Z,8.62
2023-03-05T09:20:12.705Z,8.79
2023-03-05T09:22:40.195Z,8.87
2023-03-05T09:25:08.899Z,9.24
2023-03-05T09:27:36.933Z,9.46
2023-03-05T09:30:06.522Z,8.76
2023-03-05T09:32:33.751Z,8.70
2023-03-05T09:35:00.943Z,8.99
2023-03-05T09:37:29.397Z,9.01
2023-03-05T09:39:57.625Z,8.79
2023-03-05T09:42:55.890Z,8.66
2023-03-05T09:45:55.168Z,9.45
2023-03-05T09:48:48.350Z,9.30
2023-03-05T09:51:29.335Z,9.50
2023-03-05T09:54:18.951Z,9.68
2023-03-05T09:56:50.378Z,9.14
2023-03-05T09:59:35.958Z,9.58
2023-03-05T10:02:12.524Z,9.07
2023-03-05T10:04:51.724Z,8.96
2023-03-05T10:07:22.739Z,9.49
2023-03-05T10:09:58.276Z,9.28
2023-03-05T10:12:48.839Z,9.83
2023-03-05T10:15:25.727Z,9.17
2023-03-05T10:18:20.500Z,9.10
2023-03-05T10:21:04.320Z,9.41
2023-03-05T10:24:00.671Z,9.73
2023-03-05T10:26:57.591Z,9.62
2023-03-05T10:29:46.213Z,9.41
2023-03-05T10:32:22.269Z,9.68
2023-03-05T10:35:17.087Z,9.55
2023-03-05T10:38:05.374Z,9.94
2023-03-05T10:40:41.897Z,10.49
2023-03-05T10:43:29.596Z,10.31
2023-03-05T10:45:58.423Z,10.01
2023-03-05T10:48:38.058Z,10.38
2023-03-05T10:51:30.199Z,10.40
2023-03-05T10:54:12.979Z,10.52
2023-03-05T10:56:40.210Z,9.87
2023-03-05T10:59:07.381Z,9.77
2023-03-05T11:01:37.372Z,9.58
2023-03-05T11:04:26.204Z,9.76
2023-03-05T11:06:53.424Z,9.85
2023-03-05T11:09:32.741Z,9.43
2023-03-05T11:12:21.265Z,9.63
2023-03-05T11:15:22.741Z,9.53
2023-03-05T11:18:25.561Z,9.56
2023-03-05T11:20:52.897Z,9.85
2023-03-05T11:23:26.235Z,9.48
2023-03-05T11:26:22.164Z,9.30
2023-03-05T11:28:52.021Z,9.72
2023-03-05T11:31:19.250Z,9.75
2023-03-05T11:33:59.075Z,9.90
2023-03-05T11:36:34.565Z,9.96
2023-03-05T11:39:10.159Z,9.98
2023-03-05T11:41:44.104Z,10.03
2023-03-05T11:44:19.438Z,9.89
2023-03-05T11:46:52.815Z,10.08
2023-03-05T11:49:23.295Z,10.03
2023-03-05T11:52:00.120Z,10.04
2023-03-05T11:54:33.854Z,10.35
2023-03-05T11:57:03.166Z,10.22
2023-03-05T11:59:36.279Z,10.21
2023-03-05T12:02:06.626Z,10.34
2023-03-05T12:04:35.286Z,10.30
2023-03-05T12:07:04.095Z,10.08
2023-03-05T12:09:47.659Z,10.28
2023-03-05T12:12:36.287Z,10.58
2023-03-05T12:15:12.506Z,10.48
2023-03-05T12:18:04.828Z,10.59
2023-03-05T12:20:54.062Z,10.20
2023-03-05T12:23:22.720Z,10.20
2023-03-05T12:25:53.117Z,10.25
2023-03-05T12:28:29.347Z,10.33
2023-03-05T12:30:59.980Z,10.58
2023-03-05T12:33:43.962Z,10.56
2023-03-05T12:36:17.306Z,10.38
2023-03-05T12:38:51.171Z,10.44
2023-03-05T12:41:25.834Z,10.16
2023-03-05T12:44:05.411Z,10.21
2023-03-05T12:46:37.449Z,9.96
2023-03-05T12:49:23.527Z,9.59
2023-03-05T12:51:53.057Z,9.76
2023-03-05T12:54:35.442Z,9.30
2023-03-05T12:57:24.398Z,9.46
2023-03-05T12:59:58.605Z,9.53
2023-03-05T13:02:34.751Z,9.65
2023-03-05T13:05:16.927Z,9.65
2023-03-05T13:07:44.111Z,9.66
2023-03-05T13:10:28.938Z,8.91
2023-03-05T13:12:58.573Z,8.85
2023-03-05T13:15:26.572Z,9.11
2023-03-05T13:17:57.852Z,9.38
2023-03-05T13:20:34.276Z,9.43
2023-03-05T13:23:14.044Z,8.91
2023-03-05T13:25:41.391Z,9.41
2023-03-05T13:28:14.351Z,9.58
2023-03-05T13:31:02.698Z,9.52
2023-03-05T13:33:34.885Z,9.65
2023-03-05T13:36:02.952Z,9.82
2023-03-05T13:38:40.343Z,9.96
2023-03-05T13:41:19.690Z,9.82
2023-03-05T13:44:01.890Z,9.62
2023-03-05T13:46:38.719Z,9.73
2023-03-05T13:49:26.078Z,9.96
2023-03-05T13:51:56.520Z,9.58
2023-03-05T13:54:25.378Z,9.68
2023-03-05T13:56:59.157Z,9.82
2023-03-05T13:59:30.756Z,9.85
2023-03-05T14:02:15.787Z,9.89
2023-03-05T14:04:44.829Z,9.93
2023-03-05T14:07:26.891Z,10.04
2023-03-05T14:09:54.376Z,9.94
2023-03-05T14:12:21.502Z,9.96
2023-03-05T14:14:49.095Z,9.93
2023-03-05T14:17:35.258Z,10.00
2023-03-05T14:20:12.835Z,9.89
2023-03-05T14:22:45.942Z,9.97
2023-03-05T14:25:36.438Z,9.73
2023-03-05T14:28:06.727Z,9.69
2023-03-05T14:30:36.232Z,9.25
2023-03-05T14:33:03.790Z,9.18
2023-03-05T14:35:31.250Z,9.35
2023-03-05T14:38:00.053Z,9.20
2023-03-05T14:40:33.628Z,9.08
2023-03-05T14:43:04.027Z,8.79
2023-03-05T14:45:33.987Z,8.83
2023-03-05T14:48:04.174Z,8.91
2023-03-05T14:50:56.293Z,9.01
2023-03-05T14:53:31.326Z,8.99
2023-03-05T14:55:58.551Z,9.11
2023-03-05T14:58:29.160Z,9.18
2023-03-05T15:00:57.011Z,8.85
2023-03-05T15:03:25.413Z,9.03
2023-03-05T15:05:55.156Z,8.94
2023-03-05T15:08:32.279Z,8.94
2023-03-05T15:11:00.365Z,8.97
2023-03-05T15:13:27.701Z,8.94
2023-03-05T15:15:55.475Z,9.07
2023-03-05T15:18:23.748Z,8.93
2023-03-05T15:20:54.052Z,8.84
2023-03-05T15:23:21.384Z,8.93
2023-03-05T15:25:48.911Z,8.97
2023-03-05T15:28:16.304Z,8.94
2023-03-05T15:30:46.351Z,8.96
2023-03-05T15:33:15.701Z,8.93
2023-03-05T15:35:43.443Z,8.90
2023-03-05T15:38:10.591Z,8.99
2023-03-05T15:40:37.772Z,8.85
2023-03-05T15:43:05.027Z,8.77
2023-03-05T15:45:32.618Z,8.85
2023-03-05T15:47:59.833Z,8.73
2023-03-05T15:50:27.302Z,8.60
2023-03-05T15:52:54.494Z,8.62
2023-03-05T15:55:21.794Z,8.79
2023-03-05T15:57:50.878Z,8.66
2023-03-05T16:00:25.537Z,8.77
2023-03-05T16:02:53.170Z,8.77
2023-03-05T16:05:20.501Z,8.69
2023-03-05T16:07:51.167Z,8.55
2023-03-05T16:10:22.160Z,8.57
2023-03-05T16:12:53.183Z,8.72
2023-03-05T16:15:21.581Z,8.57
2023-03-05T16:17:53.294Z,8.49
2023-03-05T16:20:21.512Z,8.52
2023-03-05T16:22:49.624Z,8.56
2023-03-05T16:25:17.805Z,8.59
2023-03-05T16:27:45.291Z,8.35
2023-03-05T16:30:15.370Z,8.49
2023-03-05T16:32:43.192Z,8.52
2023-03-05T16:35:12.305Z,8.42
2023-03-05T16:37:40.842Z,8.45
2023-03-05T16:40:10.480Z,8.49
2023-03-05T16:42:37.837Z,8.49
2023-03-05T16:45:06.062Z,8.45
2023-03-05T16:47:33.902Z,8.41
2023-03-05T16:50:01.165Z,8.43
2023-03-05T16:52:28.886Z,8.41
2023-03-05T16:54:56.219Z,8.38
2023-03-05T16:57:25.421Z,8.42
2023-03-05T16:59:54.107Z,8.36
2023-03-05T17:02:21.523Z,8.28
2023-03-05T17:04:50.338Z,8.25
2023-03-05T17:07:18.076Z,8.16
2023-03-05T17:09:47.813Z,8.26
2023-03-05T17:12:15.046Z,8.29
2023-03-05T17:14:42.194Z,8.22
2023-03-05T17:17:09.330Z,8.22
2023-03-05T17:19:36.968Z,8.16
2023-03-05T17:22:04.572Z,8.14
2023-03-05T17:24:32.974Z,8.22
2023-03-05T17:27:00.947Z,8.18
2023-03-05T17:29:28.589Z,8.16
2023-03-05T17:31:55.787Z,8.18
2023-03-05T17:34:35.455Z,8.18
2023-03-05T17:37:04.798Z,8.14
2023-03-05T17:39:32.540Z,8.18
2023-03-05T17:42:00.198Z,8.16
2023-03-05T17:44:27.353Z,8.11
2023-03-05T17:46:54.639Z,8.08
2023-03-05T17:49:21.894Z,8.08
2023-03-05T17:51:49.128Z,8.07
2023-03-05T17:54:16.328Z,8.02
2023-03-05T17:56:43.534Z,8.02
2023-03-05T17:59:10.706Z,8.02
2023-03-05T18:01:38.005Z,7.94
2023-03-05T18:04:05.445Z,7.91
2023-03-05T18:06:32.828Z,7.87
2023-03-05T18:08:59.979Z,7.87
2023-03-05T18:11:27.672Z,7.83
2023-03-05T18:13:54.940Z,7.84
2023-03-05T18:16:23.465Z,7.88
2023-03-05T18:18:51.389Z,7.77
2023-03-05T18:21:24.193Z,7.80
2023-03-05T18:23:51.587Z,7.76
2023-03-05T18:26:18.790Z,7.73
2023-03-05T18:28:46.179Z,7.77
2023-03-05T18:31:13.367Z,7.76
2023-03-05T18:33:41.056Z,7.77
2023-03-05T18:36:10.840Z,7.76
2023-03-05T18:38:38.580Z,7.74
2023-03-05T18:41:06.442Z,7.73
2023-03-05T18:43:33.724Z,7.69
2023-03-05T18:46:04.884Z,7.71
2023-03-05T18:48:32.327Z,7.71
2023-03-05T18:51:01.283Z,7.77
2023-03-05T18:53:29.610Z,7.70
2023-03-05T18:55:56.761Z,7.63
2023-03-05T18:58:25.914Z,7.62
2023-03-05T19:00:53.268Z,7.66
2023-03-05T19:03:22.879Z,7.63
2023-03-05T19:05:51.239Z,7.56
2023-03-05T19:08:18.815Z,7.60
2023-03-05T19:10:46.723Z,7.53
2023-03-05T19:13:40.026Z,7.57
2023-03-05T19:16:08.550Z,7.55
2023-03-05T19:19:17.680Z,7.55
2023-03-05T19:21:49.989Z,7.45
2023-03-05T19:24:17.634Z,7.45
2023-03-05T19:26:45.266Z,7.57
2023-03-05T19:29:12.983Z,7.55
2023-03-05T19:31:40.927Z,7.53
2023-03-05T19:34:08.531Z,7.52
2023-03-05T19:36:35.778Z,7.53
2023-03-05T19:39:07.147Z,7.57
2023-03-05T19:41:35.157Z,7.55
2023-03-05T19:44:03.263Z,7.53
2023-03-05T19:46:31.083Z,7.55
2023-03-05T19:48:58.470Z,7.52
2023-03-05T19:51:26.934Z,7.56
2023-03-05T19:53:54.190Z,7.55
2023-03-05T19:56:21.536Z,7.45
2023-03-05T19:58:49.262Z,7.46
2023-03-05T20:01:16.517Z,7.39
2023-03-05T20:03:47.561Z,7.38
2023-03-05T20:06:15.371Z,7.26
2023-03-05T20:08:42.723Z,7.26
2023-03-05T20:11:11.941Z,7.19
2023-03-05T20:13:39.975Z,7.16
2023-03-05T20:16:18.608Z,7.18
2023-03-05T20:18:46.971Z,7.16
2023-03-05T20:21:21.513Z,7.07
2023-03-05T20:23:58.060Z,7.09
2023-03-05T20:26:26.221Z,7.02
2023-03-05T20:28:54.558Z,7.00
2023-03-05T20:31:24.384Z,6.94
2023-03-05T20:33:51.686Z,6.91
2023-03-05T20:36:18.868Z,6.87
2023-03-05T20:38:46.502Z,6.94
2023-03-05T20:41:17.113Z,6.91
2023-03-05T20:43:46.634Z,6.91
2023-03-05T20:46:22.983Z,6.90
2023-03-05T20:48:53.423Z,6.90
2023-03-05T20:51:24.420Z,6.83
2023-03-05T20:53:54.237Z,6.90
2023-03-05T20:56:21.361Z,6.84
2023-03-05T20:58:48.545Z,6.79
2023-03-05T21:01:15.654Z,6.80
2023-03-05T21:03:42.839Z,6.83
2023-03-05T21:06:09.958Z,6.88
2023-03-05T21:08:37.147Z,6.90
2023-03-05T21:11:08.760Z,6.94
2023-03-05T21:13:36.766Z,6.85
2023-03-05T21:16:09.043Z,6.80
2023-03-05T21:18:36.487Z,6.64
2023-03-05T21:21:04.025Z,6.77
2023-03-05T21:23:31.248Z,6.84
2023-03-05T21:25:58.477Z,6.90
2023-03-05T21:28:25.734Z,6.91
2023-03-05T21:30:54.176Z,6.84
2023-03-05T21:33:23.844Z,6.80
2023-03-05T21:35:56.521Z,6.85
2023-03-05T21:38:25.626Z,6.73
2023-03-05T21:40:53.953Z,6.74
2023-03-05T21:43:23.656Z,6.76
2023-03-05T21:45:53.502Z,6.69
2023-03-05T21:48:21.856Z,6.67
2023-03-05T21:50:49.697Z,6.67
2023-03-05T21:53:17.991Z,6.67
2023-03-05T21:56:25.401Z,6.57
2023-03-05T21:58:53.951Z,6.57
2023-03-05T22:01:21.535Z,6.61
2023-03-05T22:03:49.860Z,6.58
2023-03-05T22:06:18.858Z,6.52
2023-03-05T22:08:47.116Z,6.49
2023-03-05T22:11:16.593Z,6.43
2023-03-05T22:13:44.222Z,6.43
2023-03-05T22:16:11.499Z,6.44
2023-03-05T22:18:38.920Z,6.52
2023-03-05T22:21:14.787Z,6.40
2023-03-05T22:23:42.007Z,6.39
2023-03-05T22:26:09.216Z,6.40
2023-03-05T22:28:38.878Z,6.36
2023-03-05T22:31:06.497Z,6.29
2023-03-05T22:33:33.755Z,6.28
2023-03-05T22:36:06.598Z,6.26
2023-03-05T22:38:33.933Z,6.29
2023-03-05T22:41:01.072Z,6.25
2023-03-05T22:43:28.231Z,6.26
2023-03-05T22:45:55.385Z,6.23
2023-03-05T22:48:22.542Z,6.18
2023-03-05T22:50:55.061Z,6.15
2023-03-05T22:53:22.729Z,6.15
2023-03-05T22:55:50.575Z,6.12
2023-03-05T22:58:17.783Z,6.15
2023-03-05T23:00:44.949Z,6.13
2023-03-05T23:03:12.230Z,6.21
2023-03-05T23:05:39.623Z,6.12
2023-03-05T23:08:07.518Z,6.11
2023-03-05T23:10:34.999Z,6.06
2023-03-05T23:13:02.578Z,6.09
2023-03-05T23:15:32.664Z,6.04
2023-03-05T23:17:59.871Z,6.09
2023-03-05T23:20:30.433Z,6.06
2023-03-05T23:22:58.074Z,5.99
2023-03-05T23:25:29.424Z,5.97
2023-03-05T23:27:58.042Z,5.97
2023-03-05T23:30:34.523Z,5.93
2023-03-05T23:33:17.988Z,5.98
2023-03-05T23:35:57.367Z,5.98
2023-03-05T23:38:26.339Z,5.95
2023-03-05T23:40:55.884Z,5.85
2023-03-05T23:43:24.846Z,5.75
2023-03-05T23:45:56.172Z,5.77
2023-03-05T23:48:25.251Z,5.84
2023-03-05T23:50:53.018Z,5.87
2023-03-05T23:53:24.099Z,5.85
2023-03-05T23:55:52.247Z,5.93
2023-03-05T23:58:20.516Z,5.84
